createdAt,value
2023-05-25T00:00:16.337Z,100611.16
2023-05-25T00:02:46.613Z,100620.00
2023-05-25T00:05:15.672Z,100608.19
2023-05-25T00:07:44.221Z,100615.19
2023-05-25T00:10:14.838Z,100614.19
2023-05-25T00:12:43.876Z,100609.69
2023-05-25T00:15:13.236Z,100610.84
2023-05-25T00:17:42.398Z,100614.69
2023-05-25T00:20:13.967Z,100607.69
2023-05-25T00:22:46.184Z,100623.19
2023-05-25T00:25:16.699Z,100622.00
2023-05-25T00:27:45.729Z,100620.16
2023-05-25T00:30:14.873Z,100622.34
2023-05-25T00:32:45.368Z,100623.00
2023-05-25T00:35:14.304Z,100617.00
2023-05-25T00:37:42.904Z,100618.84
2023-05-25T00:40:15.557Z,100620.19
2023-05-25T00:42:46.285Z,100625.34
2023-05-25T00:45:15.290Z,100623.16
2023-05-25T00:47:44.876Z,100626.50
2023-05-25T00:50:17.332Z,100625.16
2023-05-25T00:52:46.116Z,100629.16
2023-05-25T00:55:17.349Z,100637.34
2023-05-25T00:57:50.865Z,100640.50
2023-05-25T01:00:21.426Z,100628.81
2023-05-25T01:02:53.059Z,100635.16
2023-05-25T01:05:25.321Z,100637.50
2023-05-25T01:07:54.702Z,100633.50
2023-05-25T01:10:26.679Z,100638.34
2023-05-25T01:12:57.541Z,100636.16
2023-05-25T01:15:26.640Z,100631.00
2023-05-25T01:20:30.069Z,100640.81
2023-05-25T01:23:02.035Z,100653.28
2023-05-25T01:25:35.908Z,100645.34
2023-05-25T01:28:07.329Z,100644.31
2023-05-25T01:30:38.950Z,100653.50
2023-05-25T01:33:08.938Z,100654.63
2023-05-25T01:35:38.525Z,100649.50
2023-05-25T01:38:09.035Z,100647.66
2023-05-25T01:40:37.854Z,100642.69
2023-05-25T01:43:06.922Z,100646.00
2023-05-25T01:45:36.173Z,100635.50
2023-05-25T01:48:09.265Z,100648.84
2023-05-25T01:50:43.051Z,100647.81
2023-05-25T01:53:16.572Z,100651.00
2023-05-25T01:55:51.491Z,100645.81
2023-05-25T01:58:21.384Z,100642.84
2023-05-25T02:00:51.390Z,100634.19
2023-05-25T02:03:21.291Z,100630.81
2023-05-25T02:05:51.578Z,100639.47
2023-05-25T02:08:22.429Z,100637.34
2023-05-25T02:10:50.962Z,100642.84
2023-05-25T02:13:20.146Z,100642.34
2023-05-25T02:15:49.129Z,100632.50
2023-05-25T02:18:18.332Z,100629.00
2023-05-25T02:20:48.482Z,100633.81
2023-05-25T02:23:18.783Z,100635.66
2023-05-25T02:25:48.902Z,100643.53
2023-05-25T02:28:18.419Z,100639.50
2023-05-25T02:30:47.368Z,100647.66
2023-05-25T02:33:16.449Z,100654.84
2023-05-25T02:35:45.808Z,100653.19
2023-05-25T02:38:15.380Z,100653.19
2023-05-25T02:40:44.089Z,100647.31
2023-05-25T02:43:14.560Z,100653.84
2023-05-25T02:45:43.785Z,100665.50
2023-05-25T02:48:13.182Z,100661.81
2023-05-25T02:50:43.002Z,100668.47
2023-05-25T02:53:15.468Z,100661.84
2023-05-25T02:55:44.299Z,100656.66
2023-05-25T02:58:20.415Z,100657.53
2023-05-25T03:01:10.919Z,100653.00
2023-05-25T03:03:44.709Z,100654.78
2023-05-25T03:06:14.268Z,100650.66
2023-05-25T03:08:43.283Z,100656.66
2023-05-25T03:11:12.348Z,100649.97
2023-05-25T03:13:43.078Z,100656.47
2023-05-25T03:16:12.822Z,100657.66
2023-05-25T03:18:41.792Z,100662.34
2023-05-25T03:21:10.943Z,100656.84
2023-05-25T03:23:39.995Z,100665.28
2023-05-25T03:26:10.696Z,100670.16
2023-05-25T03:28:39.887Z,100676.81
2023-05-25T03:31:11.016Z,100681.84
2023-05-25T03:33:40.222Z,100688.81
2023-05-25T03:36:10.197Z,100687.47
2023-05-25T03:38:39.568Z,100689.16
2023-05-25T03:41:08.721Z,100691.84
2023-05-25T03:43:37.472Z,100690.34
2023-05-25T03:46:10.307Z,100687.00
2023-05-25T03:48:39.463Z,100692.34
2023-05-25T03:51:08.559Z,100685.53
2023-05-25T03:53:37.608Z,100681.53
2023-05-25T03:56:07.524Z,100681.66
2023-05-25T03:58:38.821Z,100680.53
2023-05-25T04:01:09.881Z,100678.50
2023-05-25T04:03:39.178Z,100685.50
2023-05-25T04:06:08.952Z,100683.16
2023-05-25T04:08:41.190Z,100687.50
2023-05-25T04:11:10.396Z,100688.97
2023-05-25T04:13:40.479Z,100698.34
2023-05-25T04:16:13.534Z,100692.19
2023-05-25T04:18:43.525Z,100701.50
2023-05-25T04:21:12.551Z,100701.34
2023-05-25T04:23:43.288Z,100708.84
2023-05-25T04:26:12.542Z,100712.16
2023-05-25T04:28:43.458Z,100705.97
2023-05-25T04:31:25.100Z,100703.19
2023-05-25T04:34:09.812Z,100707.03
2023-05-25T04:36:44.957Z,100698.50
2023-05-25T04:39:16.286Z,100701.03
2023-05-25T04:41:51.865Z,100705.84
2023-05-25T04:44:22.512Z,100705.84
2023-05-25T04:46:55.706Z,100720.81
2023-05-25T04:49:35.884Z,100715.50
2023-05-25T04:52:05.617Z,100720.34
2023-05-25T04:54:35.566Z,100711.84
2023-05-25T04:57:05.311Z,100714.53
2023-05-25T04:59:34.710Z,100714.19
2023-05-25T05:02:05.551Z,100710.34
2023-05-25T05:04:33.756Z,100707.00
2023-05-25T05:07:03.646Z,100705.50
2023-05-25T05:09:33.430Z,100718.16
2023-05-25T05:12:03.864Z,100719.19
2023-05-25T05:14:38.382Z,100714.19
2023-05-25T05:17:08.845Z,100713.53
2023-05-25T05:19:37.639Z,100719.50
2023-05-25T05:22:09.892Z,100718.84
2023-05-25T05:24:40.493Z,100721.84
2023-05-25T05:27:09.538Z,100727.28
2023-05-25T05:29:46.539Z,100723.41
2023-05-25T05:32:19.353Z,100727.28
2023-05-25T05:34:48.171Z,100719.59
2023-05-25T05:37:34.473Z,100731.47
2023-05-25T05:40:03.837Z,100734.66
2023-05-25T05:42:33.755Z,100736.97
2023-05-25T05:45:02.843Z,100738.97
2023-05-25T05:47:34.086Z,100732.72
2023-05-25T05:50:03.678Z,100735.47
2023-05-25T05:52:32.631Z,100737.22
2023-05-25T05:55:01.921Z,100736.31
2023-05-25T05:57:31.450Z,100733.91
2023-05-25T06:00:01.106Z,100743.25
2023-05-25T06:02:30.198Z,100736.50
2023-05-25T06:05:01.721Z,100735.56
2023-05-25T06:07:31.041Z,100746.22
2023-05-25T06:10:00.181Z,100739.66
2023-05-25T06:12:29.280Z,100748.78
2023-05-25T06:14:58.537Z,100742.84
2023-05-25T06:17:27.885Z,100756.25
2023-05-25T06:19:56.552Z,100764.09
2023-05-25T06:22:30.235Z,100760.38
2023-05-25T06:24:59.723Z,100759.56
2023-05-25T06:27:29.834Z,100777.47
2023-05-25T06:29:58.972Z,100766.72
2023-05-25T06:32:28.197Z,100770.13
2023-05-25T06:34:56.843Z,100776.72
2023-05-25T06:37:26.018Z,100769.13
2023-05-25T06:39:57.645Z,100776.16
2023-05-25T06:42:26.831Z,100779.31
2023-05-25T06:44:58.606Z,100780.25
2023-05-25T06:47:29.923Z,100777.72
2023-05-25T06:49:59.833Z,100776.66
2023-05-25T06:52:29.430Z,100770.97
2023-05-25T06:55:00.044Z,100774.09
2023-05-25T06:57:29.103Z,100785.25
2023-05-25T06:59:58.088Z,100775.59
2023-05-25T07:02:27.199Z,100779.63
2023-05-25T07:04:55.856Z,100776.47
2023-05-25T07:07:24.893Z,100773.81
2023-05-25T07:09:53.998Z,100781.22
2023-05-25T07:12:24.436Z,100775.38
2023-05-25T07:14:53.468Z,100779.28
2023-05-25T07:17:22.601Z,100780.53
2023-05-25T07:19:51.298Z,100767.81
2023-05-25T07:22:20.463Z,100774.00
2023-05-25T07:24:49.434Z,100770.84
2023-05-25T07:27:19.842Z,100775.69
2023-05-25T07:29:50.527Z,100767.19
2023-05-25T07:32:19.596Z,100777.03
2023-05-25T07:34:48.125Z,100780.25
2023-05-25T07:37:17.176Z,100771.56
2023-05-25T07:39:46.206Z,100770.47
2023-05-25T07:42:20.880Z,100766.34
2023-05-25T07:44:51.574Z,100766.94
2023-05-25T07:47:20.581Z,100770.44
2023-05-25T07:49:49.234Z,100766.38
2023-05-25T07:52:19.067Z,100766.28
2023-05-25T07:54:48.239Z,100770.88
2023-05-25T07:57:17.302Z,100766.47
2023-05-25T07:59:46.337Z,100769.31
2023-05-25T08:02:16.926Z,100775.59
2023-05-25T08:04:45.641Z,100769.78
2023-05-25T08:07:14.808Z,100776.16
2023-05-25T08:09:44.048Z,100774.72
2023-05-25T08:12:37.984Z,100773.31
2023-05-25T08:15:02.025Z,100774.28
2023-05-25T08:17:32.452Z,100773.09
2023-05-25T08:20:01.495Z,100773.63
2023-05-25T08:22:30.213Z,100761.16
2023-05-25T08:24:59.341Z,100764.16
2023-05-25T08:27:28.230Z,100761.69
2023-05-25T08:29:57.426Z,100759.63
2023-05-25T08:32:26.554Z,100765.63
2023-05-25T08:34:57.221Z,100765.97
2023-05-25T08:37:26.433Z,100766.75
2023-05-25T08:39:55.542Z,100760.72
2023-05-25T08:42:24.738Z,100771.53
2023-05-25T08:44:53.768Z,100761.06
2023-05-25T08:47:24.328Z,100768.81
2023-05-25T08:49:58.269Z,100772.56
2023-05-25T08:52:58.862Z,100770.34
2023-05-25T08:55:49.270Z,100778.84
2023-05-25T08:58:22.292Z,100777.53
2023-05-25T09:00:57.515Z,100774.00
2023-05-25T09:03:27.093Z,100776.34
2023-05-25T09:05:58.442Z,100776.00
2023-05-25T09:08:27.726Z,100775.59
2023-05-25T09:10:57.074Z,100772.56
2023-05-25T09:13:26.183Z,100776.19
2023-05-25T09:15:55.202Z,100779.22
2023-05-25T09:18:24.216Z,100771.06
2023-05-25T09:20:53.609Z,100767.22
2023-05-25T09:23:24.289Z,100776.63
2023-05-25T09:25:53.263Z,100778.44
2023-05-25T09:28:26.846Z,100778.75
2023-05-25T09:30:57.718Z,100783.25
2023-05-25T09:33:26.845Z,100786.72
2023-05-25T09:35:56.304Z,100777.34
2023-05-25T09:38:27.728Z,100786.63
2023-05-25T09:40:57.592Z,100779.94
2023-05-25T09:43:40.509Z,100772.97
2023-05-25T09:46:12.927Z,100780.66
2023-05-25T09:48:43.403Z,100774.00
2023-05-25T09:51:13.189Z,100780.84
2023-05-25T09:53:44.438Z,100777.31
2023-05-25T09:56:13.635Z,100782.94
2023-05-25T09:58:42.804Z,100784.84
2023-05-25T10:01:12.977Z,100783.56
2023-05-25T10:03:59.721Z,100782.75
2023-05-25T10:06:34.207Z,100770.47
2023-05-25T10:09:05.605Z,100771.28
2023-05-25T10:11:36.335Z,100769.22
2023-05-25T10:14:08.647Z,100771.28
2023-05-25T10:16:38.852Z,100770.78
2023-05-25T10:19:14.934Z,100765.44
2023-05-25T10:21:44.479Z,100757.91
2023-05-25T10:24:21.650Z,100758.38
2023-05-25T10:26:52.220Z,100750.53
2023-05-25T10:29:22.337Z,100746.91
2023-05-25T10:31:51.592Z,100742.47
2023-05-25T10:34:21.466Z,100750.13
2023-05-25T10:36:50.882Z,100745.56
2023-05-25T10:39:21.679Z,100738.19
2023-05-25T10:41:51.769Z,100737.78
2023-05-25T10:44:20.618Z,100737.53
2023-05-25T10:46:50.037Z,100740.13
2023-05-25T10:49:28.640Z,100731.88
2023-05-25T10:52:01.287Z,100727.06
2023-05-25T10:54:33.191Z,100736.94
2023-05-25T10:57:12.876Z,100731.84
2023-05-25T10:59:45.837Z,100731.00
2023-05-25T11:02:16.213Z,100750.34
2023-05-25T11:04:45.434Z,100739.19
2023-05-25T11:07:16.987Z,100727.66
2023-05-25T11:09:58.842Z,100729.56
2023-05-25T11:12:28.220Z,100729.63
2023-05-25T11:15:16.653Z,100730.84
2023-05-25T11:17:48.109Z,100726.88
2023-05-25T11:20:29.135Z,100727.38
2023-05-25T11:22:59.396Z,100731.84
2023-05-25T11:25:40.433Z,100732.94
2023-05-25T11:28:11.992Z,100723.22
2023-05-25T11:30:42.497Z,100719.09
2023-05-25T11:33:11.755Z,100718.19
2023-05-25T11:35:41.794Z,100711.56
2023-05-25T11:38:11.169Z,100722.38
2023-05-25T11:40:41.195Z,100718.19
2023-05-25T11:43:11.756Z,100714.66
2023-05-25T11:45:41.626Z,100711.03
2023-05-25T11:48:15.379Z,100713.19
2023-05-25T11:50:44.783Z,100702.94
2023-05-25T11:53:15.026Z,100708.13
2023-05-25T11:55:57.697Z,100704.44
2023-05-25T11:58:35.483Z,100700.34
2023-05-25T12:01:15.291Z,100705.50
2023-05-25T12:03:44.704Z,100709.59
2023-05-25T12:06:27.754Z,100701.75
2023-05-25T12:08:57.286Z,100695.28
2023-05-25T12:11:31.704Z,100698.16
2023-05-25T12:14:01.221Z,100700.81
2023-05-25T12:16:30.400Z,100691.59
2023-05-25T12:18:59.801Z,100697.09
2023-05-25T12:21:29.123Z,100689.25
2023-05-25T12:23:58.345Z,100698.06
2023-05-25T12:26:27.776Z,100686.88
2023-05-25T12:29:04.930Z,100692.78
2023-05-25T12:31:35.070Z,100686.28
2023-05-25T12:34:06.075Z,100690.50
2023-05-25T12:36:45.630Z,100679.22
2023-05-25T12:39:16.242Z,100677.47
2023-05-25T12:41:46.708Z,100673.84
2023-05-25T12:44:25.558Z,100665.38
2023-05-25T12:46:55.425Z,100670.59
2023-05-25T12:49:31.438Z,100657.66
2023-05-25T12:52:01.725Z,100657.50
2023-05-25T12:54:43.868Z,100657.50
2023-05-25T12:57:14.620Z,100649.72
2023-05-25T12:59:45.723Z,100656.53
2023-05-25T13:02:15.950Z,100653.66
2023-05-25T13:04:44.932Z,100647.25
2023-05-25T13:07:13.988Z,100646.28
2023-05-25T13:09:43.083Z,100650.00
2023-05-25T13:12:12.998Z,100650.38
2023-05-25T13:14:41.990Z,100639.81
2023-05-25T13:17:12.442Z,100634.44
2023-05-25T13:19:41.749Z,100635.25
2023-05-25T13:22:11.136Z,100637.63
2023-05-25T13:24:40.618Z,100639.66
2023-05-25T13:27:09.772Z,100636.78
2023-05-25T13:29:38.912Z,100624.97
2023-05-25T13:32:08.440Z,100624.88
2023-05-25T13:34:39.162Z,100625.59
2023-05-25T13:37:08.344Z,100619.34
2023-05-25T13:39:37.586Z,100603.25
2023-05-25T13:42:07.785Z,100615.28
2023-05-25T13:44:37.292Z,100620.44
2023-05-25T13:47:06.827Z,100619.25
2023-05-25T13:49:35.580Z,100624.31
2023-05-25T13:52:06.419Z,100619.75
2023-05-25T13:54:35.679Z,100615.91
2023-05-25T13:57:04.924Z,100617.16
2023-05-25T13:59:33.978Z,100607.28
2023-05-25T14:02:04.287Z,100616.91
2023-05-25T14:04:33.045Z,100613.91
2023-05-25T14:07:02.758Z,100614.41
2023-05-25T14:09:33.267Z,100610.09
2023-05-25T14:12:03.117Z,100608.31
2023-05-25T14:14:32.841Z,100598.09
2023-05-25T14:17:02.419Z,100602.66
2023-05-25T14:19:31.179Z,100599.59
2023-05-25T14:22:12.351Z,100600.38
2023-05-25T14:24:44.410Z,100592.13
2023-05-25T14:27:13.598Z,100593.31
2023-05-25T14:29:42.576Z,100599.53
2023-05-25T14:32:11.618Z,100606.25
2023-05-25T14:34:40.337Z,100603.63
2023-05-25T14:37:09.288Z,100593.09
2023-05-25T14:39:38.871Z,100607.34
2023-05-25T14:42:09.507Z,100613.34
2023-05-25T14:44:39.557Z,100603.94
2023-05-25T14:47:11.874Z,100607.59
2023-05-25T14:49:41.171Z,100595.03
2023-05-25T14:52:10.329Z,100596.03
2023-05-25T14:54:44.912Z,100591.44
2023-05-25T14:57:16.394Z,100596.47
2023-05-25T14:59:45.550Z,100591.72
2023-05-25T15:02:14.646Z,100593.84
2023-05-25T15:04:43.282Z,100586.72
2023-05-25T15:07:13.084Z,100599.97
2023-05-25T15:09:42.406Z,100598.94
2023-05-25T15:12:11.416Z,100593.72
2023-05-25T15:14:42.510Z,100597.84
2023-05-25T15:17:11.581Z,100604.38
2023-05-25T15:19:40.091Z,100598.09
2023-05-25T15:22:09.124Z,100603.97
2023-05-25T15:24:38.103Z,100605.63
2023-05-25T15:27:07.281Z,100606.75
2023-05-25T15:29:36.340Z,100602.75
2023-05-25T15:32:08.029Z,100590.19
2023-05-25T15:34:37.442Z,100589.84
2023-05-25T15:37:06.794Z,100587.88
2023-05-25T15:39:35.753Z,100591.50
2023-05-25T15:42:04.931Z,100589.75
2023-05-25T15:44:34.122Z,100590.09
2023-05-25T15:47:03.114Z,100588.22
2023-05-25T15:49:36.993Z,100592.56
2023-05-25T15:52:06.839Z,100592.03
2023-05-25T15:54:35.921Z,100591.59
2023-05-25T15:57:05.063Z,100581.81
2023-05-25T15:59:34.138Z,100584.88
2023-05-25T16:02:03.158Z,100593.41
2023-05-25T16:04:33.226Z,100590.06
2023-05-25T16:07:02.214Z,100593.75
2023-05-25T16:09:31.713Z,100592.53
2023-05-25T16:12:01.124Z,100586.31
2023-05-25T16:14:30.145Z,100595.31
2023-05-25T16:16:59.214Z,100596.13
2023-05-25T16:19:29.117Z,100593.00
2023-05-25T16:21:59.682Z,100596.19
2023-05-25T16:24:28.763Z,100591.75
2023-05-25T16:26:58.269Z,100588.66
2023-05-25T16:29:27.703Z,100582.66
2023-05-25T16:31:56.830Z,100592.56
2023-05-25T16:34:25.978Z,100596.91
2023-05-25T16:36:55.189Z,100597.22
2023-05-25T16:39:25.649Z,100586.97
2023-05-25T16:41:54.779Z,100582.19
2023-05-25T16:44:24.005Z,100576.50
2023-05-25T16:46:52.690Z,100579.38
2023-05-25T16:49:21.620Z,100576.50
2023-05-25T16:51:50.787Z,100576.13
2023-05-25T16:54:19.935Z,100573.41
2023-05-25T16:56:50.377Z,100572.00
2023-05-25T16:59:19.698Z,100577.75
2023-05-25T17:01:48.253Z,100575.38
2023-05-25T17:04:17.411Z,100582.19
2023-05-25T17:06:46.394Z,100586.56
2023-05-25T17:09:15.523Z,100584.38
2023-05-25T17:11:44.530Z,100590.94
2023-05-25T17:14:14.924Z,100578.06
2023-05-25T17:16:43.585Z,100584.94
2023-05-25T17:19:15.091Z,100579.97
2023-05-25T17:21:44.279Z,100584.66
2023-05-25T17:24:13.309Z,100584.66
2023-05-25T17:26:42.322Z,100587.84
2023-05-25T17:29:11.332Z,100592.53
2023-05-25T17:31:41.286Z,100592.47
2023-05-25T17:34:10.395Z,100595.09
2023-05-25T17:36:39.337Z,100594.81
2023-05-25T17:39:08.449Z,100603.13
2023-05-25T17:41:37.590Z,100593.34
2023-05-25T17:44:06.637Z,100588.84
2023-05-25T17:46:36.455Z,100588.72
2023-05-25T17:49:07.069Z,100589.41
2023-05-25T17:51:37.678Z,100595.09
2023-05-25T17:54:06.742Z,100595.22
2023-05-25T17:56:35.828Z,100596.63
2023-05-25T17:59:04.761Z,100598.13
2023-05-25T18:01:34.665Z,100602.75
2023-05-25T18:04:03.565Z,100605.31
2023-05-25T18:06:34.151Z,100600.06
2023-05-25T18:09:03.122Z,100600.22
2023-05-25T18:11:33.697Z,100599.75
2023-05-25T18:14:03.007Z,100609.84
2023-05-25T18:16:31.662Z,100608.63
2023-05-25T18:19:00.809Z,100603.88
2023-05-25T18:21:29.818Z,100606.91
2023-05-25T18:24:00.636Z,100611.56
2023-05-25T18:26:30.576Z,100611.41
2023-05-25T18:28:59.622Z,100613.06
2023-05-25T18:31:30.672Z,100617.06
2023-05-25T18:34:00.391Z,100619.47
2023-05-25T18:36:31.559Z,100618.03
2023-05-25T18:39:01.993Z,100621.56
2023-05-25T18:41:31.198Z,100631.09
2023-05-25T18:44:00.262Z,100642.59
2023-05-25T18:46:29.493Z,100637.63
2023-05-25T18:48:58.637Z,100637.19
2023-05-25T18:51:27.690Z,100634.84
2023-05-25T18:53:58.710Z,100638.69
2023-05-25T18:56:29.116Z,100642.00
2023-05-25T18:58:57.924Z,100633.19
2023-05-25T19:01:26.990Z,100647.34
2023-05-25T19:03:58.328Z,100637.53
2023-05-25T19:06:28.134Z,100651.38
2023-05-25T19:08:57.117Z,100644.94
2023-05-25T19:11:26.184Z,100640.84
2023-05-25T19:13:56.160Z,100650.59
2023-05-25T19:16:24.868Z,100658.44
2023-05-25T19:18:53.972Z,100658.13
2023-05-25T19:21:23.121Z,100653.38
2023-05-25T19:23:52.072Z,100657.81
2023-05-25T19:26:21.002Z,100653.63
2023-05-25T19:28:49.593Z,100657.59
2023-05-25T19:31:21.620Z,100655.66
2023-05-25T19:33:50.946Z,100651.78
2023-05-25T19:36:19.976Z,100650.31
2023-05-25T19:38:48.950Z,100645.41
2023-05-25T19:41:18.055Z,100653.88
2023-05-25T19:43:46.602Z,100653.78
2023-05-25T19:46:15.762Z,100656.63
2023-05-25T19:48:46.096Z,100650.53
2023-05-25T19:51:14.762Z,100656.28
2023-05-25T19:53:43.774Z,100655.00
2023-05-25T19:56:12.820Z,100660.41
2023-05-25T19:58:41.836Z,100663.06
2023-05-25T20:01:11.056Z,100658.97
2023-05-25T20:03:40.099Z,100650.28
2023-05-25T20:06:10.851Z,100658.47
2023-05-25T20:08:39.897Z,100665.97
2023-05-25T20:11:08.862Z,100663.09
2023-05-25T20:13:37.536Z,100662.69
2023-05-25T20:16:10.233Z,100662.31
2023-05-25T20:18:39.456Z,100664.94
2023-05-25T20:21:08.493Z,100669.25
2023-05-25T20:23:38.972Z,100662.88
2023-05-25T20:26:08.670Z,100659.34
2023-05-25T20:28:37.263Z,100658.34
2023-05-25T20:31:06.579Z,100658.16
2023-05-25T20:33:35.624Z,100659.81
2023-05-25T20:36:04.515Z,100659.84
2023-05-25T20:38:33.485Z,100661.53
2023-05-25T20:41:03.815Z,100652.22
2023-05-25T20:43:32.453Z,100655.31
2023-05-25T20:46:01.616Z,100655.75
2023-05-25T20:48:30.776Z,100661.13
2023-05-25T20:50:59.768Z,100662.78
2023-05-25T20:53:28.923Z,100664.84
2023-05-25T20:55:58.803Z,100676.03
2023-05-25T20:58:28.880Z,100674.78
2023-05-25T21:00:57.933Z,100670.03
2023-05-25T21:03:27.069Z,100674.38
2023-05-25T21:05:56.102Z,100678.72
2023-05-25T21:08:25.285Z,100673.56
2023-05-25T21:10:53.888Z,100670.44
2023-05-25T21:13:23.238Z,100678.94
2023-05-25T21:15:53.883Z,100674.19
2023-05-25T21:18:22.981Z,100673.56
2023-05-25T21:20:51.915Z,100677.69
2023-05-25T21:23:20.955Z,100678.97
2023-05-25T21:25:49.654Z,100684.13
2023-05-25T21:28:18.629Z,100687.22
2023-05-25T21:30:47.698Z,100687.22
2023-05-25T21:33:18.226Z,100681.56
2023-05-25T21:35:47.304Z,100682.47
2023-05-25T21:38:16.270Z,100679.78
2023-05-25T21:40:44.884Z,100693.81
2023-05-25T21:43:13.878Z,100690.94
2023-05-25T21:45:42.982Z,100694.66
2023-05-25T21:48:12.089Z,100695.88
2023-05-25T21:50:42.708Z,100704.63
2023-05-25T21:53:11.709Z,100699.25
2023-05-25T21:55:41.010Z,100695.34
2023-05-25T21:58:10.139Z,100691.41
2023-05-25T22:00:39.112Z,100692.19
2023-05-25T22:03:09.192Z,100688.69
2023-05-25T22:05:38.756Z,100701.75
2023-05-25T22:08:09.306Z,100695.50
2023-05-25T22:10:37.966Z,100699.25
2023-05-25T22:13:07.330Z,100705.03
2023-05-25T22:15:36.297Z,100694.25
2023-05-25T22:18:07.086Z,100693.84
2023-05-25T22:20:38.568Z,100699.63
2023-05-25T22:23:09.257Z,100696.97
2023-05-25T22:25:37.863Z,100695.50
2023-05-25T22:28:06.868Z,100696.31
2023-05-25T22:30:35.939Z,100691.69
2023-05-25T22:33:05.057Z,100704.56
2023-05-25T22:35:34.253Z,100701.19
2023-05-25T22:38:03.085Z,100707.75
2023-05-25T22:40:33.141Z,100711.50
2023-05-25T22:43:02.177Z,100713.06
2023-05-25T22:45:31.157Z,100714.28
2023-05-25T22:48:00.331Z,100721.47
2023-05-25T22:50:29.223Z,100719.22
2023-05-25T22:52:58.390Z,100721.44
2023-05-25T22:55:26.902Z,100729.91
2023-05-25T22:57:57.440Z,100731.13
2023-05-25T23:00:26.468Z,100736.06
2023-05-25T23:02:55.566Z,100726.22
2023-05-25T23:05:24.624Z,100732.28
2023-05-25T23:07:53.097Z,100732.13
2023-05-25T23:10:22.101Z,100732.88
2023-05-25T23:12:51.492Z,100734.56
2023-05-25T23:15:22.494Z,100731.81
2023-05-25T23:17:51.505Z,100728.38
2023-05-25T23:20:20.551Z,100739.41
2023-05-25T23:22:49.377Z,100733.47
2023-05-25T23:25:18.321Z,100738.47
2023-05-25T23:27:47.299Z,100737.81
2023-05-25T23:30:16.646Z,100737.31
2023-05-25T23:32:47.116Z,100741.34
2023-05-25T23:35:16.146Z,100739.63
2023-05-25T23:37:45.027Z,100742.38
2023-05-25T23:40:14.178Z,100739.69
2023-05-25T23:42:45.236Z,100745.25
2023-05-25T23:45:14.478Z,100749.59
2023-05-25T23:47:43.457Z,100742.69
2023-05-25T23:50:14.008Z,100734.63
2023-05-25T23:52:42.692Z,100745.03
2023-05-25T23:55:11.678Z,100734.94
2023-05-25T23:57:40.897Z,100742.06
